createdAt,value
2023-01-04T00:01:13.382Z,2.63
2023-01-04T00:03:41.097Z,2.85
2023-01-04T00:06:09.414Z,2.80
2023-01-04T00:08:37.136Z,2.80
2023-01-04T00:11:06.649Z,2.76
2023-01-04T00:13:35.958Z,2.72
2023-01-04T00:16:08.640Z,2.83
2023-01-04T00:18:37.721Z,2.95
2023-01-04T00:21:10.093Z,2.98
2023-01-04T00:23:38.181Z,3.19
2023-01-04T00:26:09.511Z,3.22
2023-01-04T00:28:39.021Z,3.11
2023-01-04T00:31:07.745Z,3.25
2023-01-04T00:33:35.467Z,3.30
2023-01-04T00:36:05.078Z,3.38
2023-01-04T00:38:33.538Z,3.54
2023-01-04T00:41:01.172Z,3.48
2023-01-04T00:43:28.932Z,3.64
2023-01-04T00:45:58.240Z,3.62
2023-01-04T00:48:26.004Z,3.74
2023-01-04T00:50:53.615Z,3.71
2023-01-04T00:53:21.229Z,3.63
2023-01-04T00:55:48.985Z,3.76
2023-01-04T00:58:16.600Z,3.83
2023-01-04T01:00:44.158Z,3.73
2023-01-04T01:03:13.089Z,3.79
2023-01-04T01:05:40.571Z,3.82
2023-01-04T01:08:22.014Z,3.72
2023-01-04T01:10:49.511Z,3.67
2023-01-04T01:13:17.017Z,3.70
2023-01-04T01:15:44.553Z,3.57
2023-01-04T01:18:13.450Z,3.72
2023-01-04T01:20:44.875Z,3.78
2023-01-04T01:23:13.750Z,3.73
2023-01-04T01:25:41.313Z,3.76
2023-01-04T01:28:09.540Z,3.74
2023-01-04T01:30:40.533Z,3.82
2023-01-04T01:33:08.119Z,3.84
2023-01-04T01:35:37.338Z,3.94
2023-01-04T01:38:04.870Z,4.03
2023-01-04T01:40:32.381Z,4.18
2023-01-04T01:42:59.859Z,4.26
2023-01-04T01:45:30.746Z,4.28
2023-01-04T01:48:02.622Z,4.33
2023-01-04T01:50:32.219Z,4.39
2023-01-04T01:53:01.896Z,4.47
2023-01-04T01:55:31.203Z,4.46
2023-01-04T01:57:59.530Z,4.48
2023-01-04T02:00:27.007Z,4.53
2023-01-04T02:03:01.538Z,4.61
2023-01-04T02:05:29.480Z,4.60
2023-01-04T02:07:56.944Z,4.64
2023-01-04T02:10:26.136Z,4.60
2023-01-04T02:12:53.810Z,4.71
2023-01-04T02:15:24.555Z,4.68
2023-01-04T02:17:58.578Z,4.72
2023-01-04T02:20:33.144Z,4.74
2023-01-04T02:23:39.057Z,4.71
2023-01-04T02:26:24.858Z,4.77
2023-01-04T02:29:18.505Z,4.86
2023-01-04T02:31:48.887Z,4.89
2023-01-04T02:34:22.178Z,4.91
2023-01-04T02:36:55.598Z,4.97
2023-01-04T02:39:32.581Z,4.99
2023-01-04T02:42:07.028Z,5.00
2023-01-04T02:45:00.852Z,5.14
2023-01-04T02:47:48.915Z,5.02
2023-01-04T02:50:36.027Z,5.07
2023-01-04T02:53:07.156Z,5.07
2023-01-04T02:55:44.719Z,5.08
2023-01-04T02:58:24.121Z,5.16
2023-01-04T03:01:13.673Z,5.12
2023-01-04T03:04:07.364Z,5.08
2023-01-04T03:06:41.843Z,5.12
2023-01-04T03:09:16.141Z,5.11
2023-01-04T03:11:59.934Z,5.10
2023-01-04T03:14:30.734Z,5.15
2023-01-04T03:17:01.649Z,5.17
2023-01-04T03:19:50.061Z,5.17
2023-01-04T03:22:32.901Z,5.21
2023-01-04T03:25:18.415Z,5.30
2023-01-04T03:28:05.593Z,5.30
2023-01-04T03:30:53.911Z,5.28
2023-01-04T03:33:39.417Z,5.32
2023-01-04T03:36:15.161Z,5.32
2023-01-04T03:39:03.384Z,5.29
2023-01-04T03:41:50.724Z,5.35
2023-01-04T03:44:39.552Z,5.33
2023-01-04T03:47:28.041Z,5.44
2023-01-04T03:49:58.047Z,5.40
2023-01-04T03:52:28.371Z,5.40
2023-01-04T03:54:57.202Z,5.44
2023-01-04T03:57:25.988Z,5.39
2023-01-04T03:59:58.890Z,5.36
2023-01-04T04:02:30.307Z,5.39
2023-01-04T04:05:15.969Z,5.37
2023-01-04T04:08:02.505Z,5.45
2023-01-04T04:10:30.028Z,5.55
2023-01-04T04:12:57.468Z,5.44
2023-01-04T04:15:25.030Z,5.50
2023-01-04T04:17:52.565Z,5.46
2023-01-04T04:20:20.068Z,5.44
2023-01-04T04:22:48.867Z,5.45
2023-01-04T04:25:16.580Z,5.44
2023-01-04T04:27:44.018Z,5.45
2023-01-04T04:30:11.721Z,5.49
2023-01-04T04:32:39.166Z,5.48
2023-01-04T04:35:07.224Z,5.43
2023-01-04T04:37:34.981Z,5.44
2023-01-04T04:40:03.980Z,5.44
2023-01-04T04:42:30.491Z,5.49
2023-01-04T04:44:57.971Z,5.43
2023-01-04T04:47:25.424Z,5.33
2023-01-04T04:49:52.869Z,5.46
2023-01-04T04:52:20.362Z,5.34
2023-01-04T04:54:47.829Z,5.41
2023-01-04T04:57:16.641Z,5.30
2023-01-04T04:59:44.091Z,5.30
2023-01-04T05:02:11.719Z,5.33
2023-01-04T05:04:39.258Z,5.28
2023-01-04T05:07:12.289Z,5.32
2023-01-04T05:09:40.151Z,5.34
2023-01-04T05:12:25.247Z,5.31
2023-01-04T05:14:54.079Z,5.31
2023-01-04T05:17:21.551Z,5.36
2023-01-04T05:19:48.977Z,5.36
2023-01-04T05:22:16.474Z,5.32
2023-01-04T05:24:43.974Z,5.30
2023-01-04T05:27:11.454Z,5.34
2023-01-04T05:29:53.139Z,5.35
2023-01-04T05:32:21.939Z,5.36
2023-01-04T05:34:49.397Z,5.38
2023-01-04T05:37:16.854Z,5.35
2023-01-04T05:39:44.307Z,5.37
2023-01-04T05:42:27.856Z,5.42
2023-01-04T05:44:56.402Z,5.44
2023-01-04T05:47:25.574Z,5.41
2023-01-04T05:49:53.703Z,5.46
2023-01-04T05:52:21.487Z,5.48
2023-01-04T05:54:49.133Z,5.42
2023-01-04T05:57:16.937Z,5.43
2023-01-04T05:59:44.583Z,5.38
2023-01-04T06:02:17.116Z,5.44
2023-01-04T06:04:49.228Z,5.47
2023-01-04T06:07:19.143Z,5.51
2023-01-04T06:09:46.621Z,5.42
2023-01-04T06:12:14.611Z,5.34
2023-01-04T06:14:42.128Z,5.40
2023-01-04T06:17:09.692Z,5.35
2023-01-04T06:19:37.451Z,5.35
2023-01-04T06:22:06.430Z,5.36
2023-01-04T06:24:34.861Z,5.43
2023-01-04T06:27:02.477Z,5.41
2023-01-04T06:29:29.987Z,5.31
2023-01-04T06:31:57.484Z,5.46
2023-01-04T06:34:30.594Z,5.36
2023-01-04T06:36:58.569Z,5.43
2023-01-04T06:39:27.534Z,5.37
2023-01-04T06:41:59.059Z,5.32
2023-01-04T06:44:31.365Z,5.27
2023-01-04T06:46:58.865Z,5.38
2023-01-04T06:49:26.308Z,5.34
2023-01-04T06:51:53.762Z,5.38
2023-01-04T06:54:21.272Z,5.38
2023-01-04T06:56:50.081Z,5.29
2023-01-04T06:59:17.562Z,5.35
2023-01-04T07:01:45.141Z,5.30
2023-01-04T07:04:12.702Z,5.29
2023-01-04T07:06:40.150Z,5.26
2023-01-04T07:09:07.592Z,5.26
2023-01-04T07:11:35.046Z,5.30
2023-01-04T07:14:03.872Z,5.41
2023-01-04T07:16:31.421Z,5.42
2023-01-04T07:18:59.072Z,5.39
2023-01-04T07:21:26.851Z,5.37
2023-01-04T07:23:54.341Z,5.44
2023-01-04T07:26:21.799Z,5.39
2023-01-04T07:29:06.968Z,5.41
2023-01-04T07:31:35.790Z,5.45
2023-01-04T07:34:03.338Z,5.51
2023-01-04T07:36:30.887Z,5.59
2023-01-04T07:39:00.135Z,5.63
2023-01-04T07:41:27.670Z,5.66
2023-01-04T07:43:55.318Z,5.64
2023-01-04T07:46:22.896Z,5.68
2023-01-04T07:48:51.800Z,5.72
2023-01-04T07:51:19.247Z,5.79
2023-01-04T07:53:46.725Z,5.84
2023-01-04T07:56:18.768Z,5.88
2023-01-04T07:58:46.541Z,5.82
2023-01-04T08:01:16.074Z,5.82
2023-01-04T08:03:45.217Z,5.85
2023-01-04T08:06:15.965Z,5.88
2023-01-04T08:08:44.113Z,5.91
2023-01-04T08:11:13.575Z,5.94
2023-01-04T08:13:41.338Z,5.98
2023-01-04T08:16:09.243Z,5.98
2023-01-04T08:18:36.734Z,6.09
2023-01-04T08:21:05.441Z,6.08
2023-01-04T08:23:35.555Z,6.07
2023-01-04T08:26:04.413Z,6.08
2023-01-04T08:28:32.366Z,6.17
2023-01-04T08:30:59.849Z,6.19
2023-01-04T08:33:27.324Z,6.22
2023-01-04T08:35:54.804Z,6.30
2023-01-04T08:38:58.140Z,6.39
2023-01-04T08:41:39.233Z,6.42
2023-01-04T08:43:58.542Z,6.38
2023-01-04T08:46:26.065Z,6.37
2023-01-04T08:48:53.754Z,6.45
2023-01-04T08:51:21.263Z,6.47
2023-01-04T08:53:48.858Z,6.48
2023-01-04T08:56:17.653Z,6.55
2023-01-04T08:58:45.807Z,6.52
2023-01-04T09:01:13.640Z,6.56
2023-01-04T09:03:41.953Z,6.50
2023-01-04T09:06:11.475Z,6.56
2023-01-04T09:08:40.350Z,6.60
2023-01-04T09:11:10.067Z,6.67
2023-01-04T09:13:39.264Z,6.60
2023-01-04T09:16:08.815Z,6.60
2023-01-04T09:18:36.468Z,6.64
2023-01-04T09:21:06.618Z,6.65
2023-01-04T09:23:34.749Z,6.72
2023-01-04T09:26:09.425Z,6.73
2023-01-04T09:28:38.741Z,6.80
2023-01-04T09:31:07.410Z,6.81
2023-01-04T09:34:03.913Z,6.81
2023-01-04T09:36:23.865Z,6.90
2023-01-04T09:38:51.983Z,6.91
2023-01-04T09:41:47.309Z,6.88
2023-01-04T09:44:20.375Z,6.88
2023-01-04T09:46:50.987Z,6.92
2023-01-04T09:49:22.400Z,6.94
2023-01-04T09:51:56.160Z,7.04
2023-01-04T09:54:24.593Z,6.97
2023-01-04T09:56:55.847Z,7.01
2023-01-04T09:59:30.271Z,7.08
2023-01-04T10:02:01.320Z,7.10
2023-01-04T10:04:37.605Z,7.11
2023-01-04T10:07:05.615Z,7.18
2023-01-04T10:09:33.365Z,7.20
2023-01-04T10:12:14.346Z,7.23
2023-01-04T10:14:51.893Z,7.27
2023-01-04T10:18:29.798Z,7.36
2023-01-04T10:21:23.229Z,7.35
2023-01-04T10:23:35.299Z,7.39
2023-01-04T10:26:07.543Z,7.46
2023-01-04T10:28:56.289Z,7.55
2023-01-04T10:31:39.411Z,7.56
2023-01-04T10:34:19.138Z,7.56
2023-01-04T10:36:47.633Z,7.62
2023-01-04T10:39:17.058Z,7.56
2023-01-04T10:41:51.269Z,7.63
2023-01-04T10:44:24.361Z,7.60
2023-01-04T10:46:59.147Z,7.69
2023-01-04T10:49:30.702Z,7.71
2023-01-04T10:52:00.593Z,7.74
2023-01-04T10:54:32.377Z,7.77
2023-01-04T10:57:06.876Z,7.89
2023-01-04T10:59:39.693Z,7.86
2023-01-04T11:02:17.105Z,7.84
2023-01-04T11:04:50.175Z,7.95
2023-01-04T11:07:20.452Z,7.88
2023-01-04T11:09:52.069Z,7.94
2023-01-04T11:12:22.434Z,7.89
2023-01-04T11:14:50.124Z,7.94
2023-01-04T11:17:19.277Z,8.06
2023-01-04T11:19:46.796Z,8.10
2023-01-04T11:22:17.935Z,8.03
2023-01-04T11:25:07.869Z,8.13
2023-01-04T11:27:41.417Z,8.16
2023-01-04T11:30:17.250Z,8.14
2023-01-04T11:32:51.327Z,8.11
2023-01-04T11:35:42.262Z,8.11
2023-01-04T11:38:13.045Z,8.10
2023-01-04T11:40:41.289Z,8.15
2023-01-04T11:43:16.137Z,8.18
2023-01-04T11:45:54.190Z,8.24
2023-01-04T11:48:32.312Z,8.20
2023-01-04T11:50:59.800Z,8.24
2023-01-04T11:53:31.054Z,8.30
2023-01-04T11:56:17.768Z,8.31
2023-01-04T11:58:47.000Z,8.32
2023-01-04T12:01:23.060Z,8.36
2023-01-04T12:03:52.399Z,8.35
2023-01-04T12:06:23.060Z,8.36
2023-01-04T12:08:50.577Z,8.44
2023-01-04T12:11:21.907Z,8.42
2023-01-04T12:13:49.365Z,8.39
2023-01-04T12:16:23.069Z,8.43
2023-01-04T12:18:52.030Z,8.47
2023-01-04T12:21:22.322Z,8.53
2023-01-04T12:23:50.357Z,8.48
2023-01-04T12:26:18.340Z,8.61
2023-01-04T12:28:47.298Z,8.63
2023-01-04T12:31:35.472Z,8.72
2023-01-04T12:34:36.436Z,8.68
2023-01-04T12:37:06.365Z,8.65
2023-01-04T12:39:43.291Z,8.74
2023-01-04T12:42:17.729Z,8.81
2023-01-04T12:44:59.767Z,8.86
2023-01-04T12:47:58.200Z,8.89
2023-01-04T12:50:27.547Z,8.88
2023-01-04T12:55:55.755Z,9.00
2023-01-04T12:59:26.720Z,9.05
2023-01-04T13:02:19.650Z,9.04
2023-01-04T13:04:47.605Z,9.06
2023-01-04T13:07:27.442Z,9.14
2023-01-04T13:09:59.334Z,9.12
2023-01-04T13:12:43.357Z,9.12
2023-01-04T13:15:19.660Z,9.16
2023-01-04T13:17:47.876Z,9.18
2023-01-04T13:20:17.988Z,9.17
2023-01-04T13:22:50.547Z,9.18
2023-01-04T13:25:20.267Z,9.21
2023-01-04T13:27:59.052Z,9.24
2023-01-04T13:30:31.878Z,9.26
2023-01-04T13:33:25.527Z,9.24
2023-01-04T13:36:01.133Z,9.21
2023-01-04T13:38:28.603Z,9.29
2023-01-04T13:40:57.574Z,9.30
2023-01-04T13:43:39.623Z,9.34
2023-01-04T13:46:14.454Z,9.34
2023-01-04T13:48:43.450Z,9.31
2023-01-04T13:51:16.052Z,9.41
2023-01-04T13:53:44.222Z,9.43
2023-01-04T13:56:20.629Z,9.32
2023-01-04T13:58:48.181Z,9.34
2023-01-04T14:01:18.930Z,9.28
2023-01-04T14:03:47.887Z,9.35
2023-01-04T14:06:21.638Z,9.33
2023-01-04T14:08:54.776Z,9.37
2023-01-04T14:11:43.432Z,9.40
2023-01-04T14:14:19.709Z,9.41
2023-01-04T14:16:47.347Z,9.43
2023-01-04T14:19:38.983Z,9.44
2023-01-04T14:22:29.228Z,9.56
2023-01-04T14:25:13.509Z,9.49
2023-01-04T14:27:43.512Z,9.64
2023-01-04T14:30:24.911Z,9.52
2023-01-04T14:32:56.525Z,9.60
2023-01-04T14:35:24.311Z,9.59
2023-01-04T14:37:52.123Z,9.59
2023-01-04T14:40:25.002Z,9.63
2023-01-04T14:42:53.876Z,9.73
2023-01-04T14:45:21.342Z,9.78
2023-01-04T14:47:48.896Z,9.72
2023-01-04T14:50:17.723Z,9.76
2023-01-04T14:52:51.408Z,9.70
2023-01-04T14:55:18.908Z,9.72
2023-01-04T14:57:46.401Z,9.74
2023-01-04T15:00:19.497Z,9.72
2023-01-04T15:02:50.190Z,9.70
2023-01-04T15:05:19.877Z,9.79
2023-01-04T15:07:47.556Z,9.79
2023-01-04T15:10:20.848Z,9.75
2023-01-04T15:12:48.362Z,9.76
2023-01-04T15:15:17.373Z,9.73
2023-01-04T15:17:44.946Z,9.78
2023-01-04T15:20:12.607Z,9.77
2023-01-04T15:22:40.354Z,9.83
2023-01-04T15:25:08.828Z,9.88
2023-01-04T15:27:41.941Z,9.80
2023-01-04T15:30:11.356Z,9.78
2023-01-04T15:32:41.147Z,9.76
2023-01-04T15:35:09.176Z,9.71
2023-01-04T15:37:36.815Z,9.70
2023-01-04T15:40:04.901Z,9.76
2023-01-04T15:42:50.306Z,9.75
2023-01-04T15:45:18.010Z,9.74
2023-01-04T15:47:46.865Z,9.77
2023-01-04T15:50:14.386Z,9.75
2023-01-04T15:52:41.985Z,9.75
2023-01-04T15:55:10.283Z,9.73
2023-01-04T15:57:41.956Z,9.81
2023-01-04T16:00:13.140Z,9.84
2023-01-04T16:02:41.045Z,9.82
2023-01-04T16:05:11.055Z,9.86
2023-01-04T16:07:38.778Z,9.85
2023-01-04T16:10:07.308Z,9.84
2023-01-04T16:12:44.463Z,9.74
2023-01-04T16:15:14.439Z,9.76
2023-01-04T16:17:42.533Z,9.71
2023-01-04T16:20:13.266Z,9.86
2023-01-04T16:22:41.269Z,9.86
2023-01-04T16:25:11.644Z,9.80
2023-01-04T16:27:40.142Z,9.86
2023-01-04T16:30:09.853Z,9.79
2023-01-04T16:32:38.153Z,9.75
2023-01-04T16:35:06.138Z,9.76
2023-01-04T16:37:35.087Z,9.79
2023-01-04T16:40:07.193Z,9.86
2023-01-04T16:42:38.110Z,9.86
2023-01-04T16:45:06.739Z,9.84
2023-01-04T16:47:39.457Z,9.85
2023-01-04T16:50:07.687Z,9.96
2023-01-04T16:52:36.807Z,9.89
2023-01-04T16:55:06.652Z,9.88
2023-01-04T16:57:34.181Z,9.94
2023-01-04T17:00:01.787Z,9.91
2023-01-04T17:02:29.508Z,9.86
2023-01-04T17:04:59.607Z,9.98
2023-01-04T17:07:32.476Z,9.93
2023-01-04T17:10:05.783Z,9.95
2023-01-04T17:12:49.302Z,10.00
2023-01-04T17:18:06.000Z,9.96
2023-01-04T17:20:33.645Z,9.97
2023-01-04T17:23:01.206Z,9.98
2023-01-04T17:25:30.113Z,9.98
2023-01-04T17:27:57.577Z,10.01
2023-01-04T17:30:25.073Z,10.00
2023-01-04T17:32:52.557Z,9.99
2023-01-04T17:35:20.045Z,10.01
2023-01-04T17:37:47.484Z,10.02
2023-01-04T17:40:20.655Z,10.03
2023-01-04T17:42:51.948Z,9.99
2023-01-04T17:45:19.626Z,9.97
2023-01-04T17:47:47.444Z,9.98
2023-01-04T17:50:15.736Z,10.03
2023-01-04T17:52:45.424Z,10.07
2023-01-04T17:55:13.159Z,10.01
2023-01-04T18:00:20.544Z,9.98
2023-01-04T18:02:48.276Z,10.01
2023-01-04T18:05:16.000Z,10.08
2023-01-04T18:07:43.661Z,10.01
2023-01-04T18:10:26.774Z,9.97
2023-01-04T18:13:00.793Z,9.90
2023-01-04T18:15:29.909Z,9.95
2023-01-04T18:17:57.487Z,9.88
2023-01-04T18:20:26.546Z,9.72
2023-01-04T18:22:54.115Z,9.72
2023-01-04T18:25:21.911Z,9.69
2023-01-04T18:27:49.448Z,9.67
2023-01-04T18:30:17.151Z,9.69
2023-01-04T18:32:46.083Z,9.73
2023-01-04T18:35:13.712Z,9.60
2023-01-04T18:37:41.293Z,9.61
2023-01-04T18:40:10.607Z,9.60
2023-01-04T18:42:38.231Z,9.50
2023-01-04T18:45:07.118Z,9.56
2023-01-04T18:47:34.826Z,9.52
2023-01-04T18:50:03.715Z,9.51
2023-01-04T18:52:31.221Z,9.50
2023-01-04T18:54:58.819Z,9.47
2023-01-04T18:57:26.373Z,9.48
2023-01-04T18:59:53.919Z,9.42
2023-01-04T19:02:21.849Z,9.52
2023-01-04T19:04:49.564Z,9.52
2023-01-04T19:07:20.441Z,9.51
2023-01-04T19:09:48.058Z,9.49
2023-01-04T19:12:16.175Z,9.51
2023-01-04T19:14:43.792Z,9.51
2023-01-04T19:17:11.647Z,9.59
2023-01-04T19:19:39.329Z,9.58
2023-01-04T19:22:06.879Z,9.59
2023-01-04T19:24:35.823Z,9.66
2023-01-04T19:27:05.081Z,9.69
2023-01-04T19:29:33.966Z,9.72
2023-01-04T19:32:01.870Z,9.65
2023-01-04T19:34:31.054Z,9.69
2023-01-04T19:36:58.666Z,9.70
2023-01-04T19:39:26.327Z,9.61
2023-01-04T19:41:55.195Z,9.61
2023-01-04T19:44:22.744Z,9.61
2023-01-04T19:46:50.268Z,9.63
2023-01-04T19:49:20.613Z,9.60
2023-01-04T19:51:50.780Z,9.69
2023-01-04T19:54:24.759Z,9.68
2023-01-04T19:56:53.312Z,9.67
2023-01-04T19:59:22.360Z,9.60
2023-01-04T20:01:50.347Z,9.51
2023-01-04T20:04:18.133Z,9.49
2023-01-04T20:06:48.187Z,9.43
2023-01-04T20:09:18.260Z,9.44
2023-01-04T20:11:45.802Z,9.44
2023-01-04T20:14:13.356Z,9.40
2023-01-04T20:16:42.272Z,9.38
2023-01-04T20:19:09.807Z,9.42
2023-01-04T20:21:37.314Z,9.38
2023-01-04T20:24:05.317Z,9.36
2023-01-04T20:26:32.879Z,9.42
2023-01-04T20:29:00.413Z,9.38
2023-01-04T20:31:27.956Z,9.36
2023-01-04T20:33:57.312Z,9.48
2023-01-04T20:36:26.590Z,9.54
2023-01-04T20:38:54.884Z,9.49
2023-01-04T20:41:24.013Z,9.56
2023-01-04T20:43:50.789Z,9.50
2023-01-04T20:46:19.655Z,9.49
2023-01-04T20:48:47.544Z,9.49
2023-01-04T20:51:18.329Z,9.47
2023-01-04T20:53:46.370Z,9.52
2023-01-04T20:56:15.459Z,9.59
2023-01-04T20:58:43.136Z,9.57
2023-01-04T21:01:10.865Z,9.55
2023-01-04T21:03:38.602Z,9.60
2023-01-04T21:06:08.043Z,9.53
2023-01-04T21:08:38.154Z,9.54
2023-01-04T21:11:06.182Z,9.56
2023-01-04T21:13:34.422Z,9.51
2023-01-04T21:16:02.849Z,9.55
2023-01-04T21:18:30.425Z,9.50
2023-01-04T21:20:58.004Z,9.53
2023-01-04T21:23:27.501Z,9.51
2023-01-04T21:25:57.082Z,9.60
2023-01-04T21:28:24.609Z,9.65
2023-01-04T21:30:52.281Z,9.63
2023-01-04T21:33:19.837Z,9.60
2023-01-04T21:35:47.359Z,9.69
2023-01-04T21:38:14.928Z,9.65
2023-01-04T21:40:42.946Z,9.62
2023-01-04T21:43:17.173Z,9.60
2023-01-04T21:45:44.850Z,9.65
2023-01-04T21:48:12.514Z,9.67
2023-01-04T21:50:40.059Z,9.65
2023-01-04T21:53:07.610Z,9.71
2023-01-04T21:55:35.388Z,9.69
2023-01-04T21:58:03.402Z,9.73
2023-01-04T22:00:32.230Z,9.76
2023-01-04T22:02:59.746Z,9.82
2023-01-04T22:05:27.281Z,9.83
2023-01-04T22:07:54.825Z,9.86
2023-01-04T22:10:22.324Z,9.89
2023-01-04T22:12:50.398Z,9.85
2023-01-04T22:15:18.055Z,9.89
2023-01-04T22:17:47.816Z,9.91
2023-01-04T22:20:15.463Z,9.95
2023-01-04T22:22:42.910Z,10.05
2023-01-04T22:25:10.784Z,10.07
2023-01-04T22:27:38.270Z,10.08
2023-01-04T22:30:07.141Z,10.07
2023-01-04T22:32:34.682Z,10.10
2023-01-04T22:35:03.755Z,10.12
2023-01-04T22:37:31.216Z,10.16
2023-01-04T22:39:58.702Z,10.15
2023-01-04T22:42:26.280Z,10.10
2023-01-04T22:44:53.786Z,10.08
2023-01-04T22:47:21.327Z,10.22
2023-01-04T22:49:49.285Z,10.12
2023-01-04T22:52:18.181Z,10.15
2023-01-04T22:54:45.722Z,10.12
2023-01-04T22:57:13.255Z,10.23
2023-01-04T22:59:40.771Z,10.15
2023-01-04T23:02:08.415Z,10.17
2023-01-04T23:04:36.012Z,10.17
2023-01-04T23:07:03.584Z,10.21
2023-01-04T23:09:32.643Z,10.24
2023-01-04T23:12:00.199Z,10.28
2023-01-04T23:14:27.892Z,10.30
2023-01-04T23:16:55.473Z,10.30
2023-01-04T23:19:23.187Z,10.25
2023-01-04T23:21:50.843Z,10.28
2023-01-04T23:24:18.534Z,10.28
2023-01-04T23:26:48.200Z,10.35
2023-01-04T23:29:15.835Z,10.34
2023-01-04T23:31:43.477Z,10.38
2023-01-04T23:34:11.837Z,10.43
2023-01-04T23:36:41.211Z,10.44
2023-01-04T23:39:13.744Z,10.37
2023-01-04T23:41:46.579Z,10.44
2023-01-04T23:44:18.126Z,10.30
2023-01-04T23:46:46.924Z,10.28
2023-01-04T23:49:14.505Z,10.34
2023-01-04T23:51:43.351Z,10.24
2023-01-04T23:54:11.262Z,10.22
2023-01-04T23:56:39.545Z,10.19
2023-01-04T23:59:07.306Z,10.16
